Time;durP1;ratioP1;P1;durP2;ratioP2;P2;SDS_P1;SDS_P2;PMS_P1;PMS_P2;Temp;Humidity;BMP_temperature;BMP_pressure;BME280_temperature;BME280_humidity;BME280_pressure;Samples;Min_cycle;Max_cycle;Signal;HPM_P1;HPM_P2
2022/10/17 03:01:50;;;;;;;0.65;0.60;;;20.90;51.30;;;;;;4920436;23;46379;-60
2022/10/17 03:04:16;;;;;;;0.70;0.50;;;20.80;51.30;;;;;;4879248;28;45273;-60
2022/10/17 03:06:41;;;;;;;0.47;0.47;;;20.80;51.30;;;;;;4896369;28;45594;-60
2022/10/17 03:09:08;;;;;;;0.70;0.50;;;20.90;51.30;;;;;;4895212;28;45544;-60
2022/10/17 03:11:33;;;;;;;0.50;0.50;;;20.90;51.30;;;;;;4866191;28;45371;-60
2022/10/17 03:13:59;;;;;;;0.73;0.60;;;20.80;51.20;;;;;;4893876;28;44956;-60
2022/10/17 03:16:24;;;;;;;0.60;0.60;;;20.90;51.30;;;;;;4896504;28;44978;-60
2022/10/17 03:18:50;;;;;;;0.88;0.60;;;20.80;51.30;;;;;;4894690;28;46375;-58
2022/10/17 03:21:16;;;;;;;0.82;0.60;;;20.90;51.30;;;;;;4877492;28;45941;-60
2022/10/17 03:23:41;;;;;;;0.50;0.50;;;20.80;51.20;;;;;;4904231;28;45221;-59
2022/10/17 03:26:07;;;;;;;0.55;0.55;;;20.90;51.20;;;;;;4902503;28;44964;-60
2022/10/17 03:28:32;;;;;;;0.40;0.40;;;20.90;51.20;;;;;;4894366;28;45467;-60
2022/10/17 03:30:58;;;;;;;1.33;0.88;;;20.80;51.20;;;;;;4883734;28;45087;-60
2022/10/17 03:33:23;;;;;;;0.63;0.50;;;20.90;51.30;;;;;;4882326;28;45209;-59
2022/10/17 03:35:49;;;;;;;0.55;0.40;;;20.80;51.30;;;;;;4904855;28;44789;-60
2022/10/17 03:38:14;;;;;;;0.60;0.50;;;20.90;51.30;;;;;;4900940;28;45989;-60
2022/10/17 03:40:40;;;;;;;0.93;0.50;;;20.90;51.90;;;;;;4899881;28;45018;-60
2022/10/17 03:43:06;;;;;;;0.70;0.52;;;20.80;51.30;;;;;;4902112;28;44869;-60
2022/10/17 03:45:31;;;;;;;0.45;0.45;;;20.80;51.30;;;;;;4867497;28;45231;-60
2022/10/17 03:48:00;;;;;;;0.77;0.50;;;20.80;51.30;;;;;;4883142;29;46147;-60
2022/10/17 03:50:25;;;;;;;0.38;0.38;;;20.80;51.20;;;;;;4885604;28;44948;-60
2022/10/17 03:52:51;;;;;;;0.50;0.50;;;20.80;51.30;;;;;;4901616;28;45148;-60
2022/10/17 03:55:17;;;;;;;0.73;0.65;;;20.80;51.20;;;;;;4901035;28;45009;-60
2022/10/17 03:57:43;;;;;;;0.50;0.50;;;20.80;51.30;;;;;;4876445;28;46249;-60
2022/10/17 04:00:09;;;;;;;0.80;0.50;;;20.80;51.20;;;;;;4886035;28;45033;-60
2022/10/17 04:02:34;;;;;;;0.70;0.70;;;20.80;51.30;;;;;;4900260;28;45185;-60
2022/10/17 04:05:00;;;;;;;0.68;0.60;;;20.90;51.30;;;;;;4884175;28;45111;-60
2022/10/17 04:07:26;;;;;;;0.60;0.60;;;20.90;51.30;;;;;;4903263;28;46163;-60
2022/10/17 04:09:52;;;;;;;0.50;0.50;;;20.90;51.30;;;;;;4889982;28;44731;-59
2022/10/17 04:12:17;;;;;;;0.45;0.45;;;20.80;51.20;;;;;;4902305;28;45110;-59
2022/10/17 04:14:43;;;;;;;0.52;0.52;;;20.90;51.30;;;;;;4886494;28;46222;-60
2022/10/17 04:17:08;;;;;;;0.52;0.52;;;20.90;51.30;;;;;;4896651;28;46052;-60
2022/10/17 04:19:34;;;;;;;0.57;0.50;;;20.90;51.30;;;;;;4884539;28;45063;-60
2022/10/17 04:22:01;;;;;;;0.63;0.60;;;20.80;51.30;;;;;;4882486;28;44978;-60
2022/10/17 04:24:27;;;;;;;0.50;0.50;;;20.90;51.30;;;;;;4896523;28;45032;-58
2022/10/17 04:26:53;;;;;;;0.50;0.45;;;20.90;51.30;;;;;;4897177;28;45912;-60
2022/10/17 04:29:19;;;;;;;0.60;0.60;;;20.90;51.30;;;;;;4883791;28;44911;-60
2022/10/17 04:31:45;;;;;;;0.40;0.40;;;20.80;51.20;;;;;;4867936;28;44991;-59
2022/10/17 04:34:12;;;;;;;0.40;0.40;;;20.90;51.30;;;;;;4900819;28;44908;-60
2022/10/17 04:36:38;;;;;;;0.60;0.45;;;20.90;51.20;;;;;;4897358;28;46054;-60
2022/10/17 04:39:04;;;;;;;0.70;0.70;;;20.80;51.20;;;;;;4869946;28;44945;-60
2022/10/17 04:41:30;;;;;;;1.00;0.65;;;20.80;51.20;;;;;;4888052;29;44886;-59
2022/10/17 04:43:55;;;;;;;0.77;0.60;;;20.90;51.20;;;;;;4881424;29;44886;-60
2022/10/17 04:46:21;;;;;;;0.52;0.43;;;20.90;51.30;;;;;;4887985;28;45404;-60
2022/10/17 04:48:47;;;;;;;1.45;0.57;;;20.80;51.30;;;;;;4902271;28;44830;-60
2022/10/17 04:51:14;;;;;;;0.30;0.30;;;20.90;51.30;;;;;;4881669;28;45274;-59
2022/10/17 04:53:40;;;;;;;0.50;0.50;;;20.90;51.30;;;;;;4889547;28;44959;-60
2022/10/17 04:56:10;;;;;;;0.57;0.47;;;20.80;51.20;;;;;;4883084;28;46367;-60
2022/10/17 04:58:36;;;;;;;0.35;0.35;;;20.80;51.40;;;;;;4902591;28;45120;-60
2022/10/17 05:01:09;;;;;;;0.57;0.57;;;20.80;51.30;;;;;;4895712;28;44970;-58
2022/10/17 05:03:34;;;;;;;0.60;0.60;;;20.80;51.30;;;;;;4907482;28;45273;-59
2022/10/17 05:06:17;;;;;;;0.55;0.40;;;20.80;51.30;;;;;;4862263;28;47318;-60
2022/10/17 05:08:43;;;;;;;0.40;0.40;;;20.80;51.30;;;;;;4887045;28;44707;-59
2022/10/17 05:11:24;;;;;;;0.47;0.47;;;20.80;51.30;;;;;;4885183;29;45031;-58
2022/10/17 05:13:54;;;;;;;0.57;0.52;;;20.80;51.30;;;;;;4887639;28;45814;-60
2022/10/17 05:16:20;;;;;;;0.50;0.38;;;20.80;51.30;;;;;;4884616;28;46347;-58
2022/10/17 05:18:49;;;;;;;0.60;0.60;;;20.80;51.30;;;;;;4897235;28;45023;-60
2022/10/17 05:21:15;;;;;;;0.40;0.40;;;20.80;51.20;;;;;;4881146;28;44973;-58
2022/10/17 05:23:41;;;;;;;0.77;0.70;;;20.80;51.30;;;;;;4886497;28;46320;-60
2022/10/17 05:26:06;;;;;;;0.60;0.43;;;20.80;51.20;;;;;;4900490;28;46315;-60
2022/10/17 05:28:33;;;;;;;1.00;0.60;;;20.80;51.20;;;;;;4884162;28;45301;-60
2022/10/17 05:31:02;;;;;;;0.50;0.50;;;20.80;51.20;;;;;;4897125;28;45179;-61
2022/10/17 05:33:28;;;;;;;0.63;0.50;;;20.80;51.30;;;;;;4869758;28;45229;-60
2022/10/17 05:35:53;;;;;;;0.45;0.45;;;20.80;51.30;;;;;;4901121;28;45675;-60
2022/10/17 05:38:19;;;;;;;0.93;0.52;;;20.80;51.30;;;;;;4901089;28;44848;-59
2022/10/17 05:40:44;;;;;;;0.63;0.60;;;20.80;51.30;;;;;;4897339;28;45155;-60
2022/10/17 05:43:10;;;;;;;0.82;0.50;;;20.80;51.30;;;;;;4883552;28;45185;-60
2022/10/17 05:45:35;;;;;;;0.70;0.65;;;20.80;51.30;;;;;;4902658;28;45350;-60
2022/10/17 05:48:01;;;;;;;0.70;0.70;;;20.80;51.30;;;;;;4899399;28;45104;-60
2022/10/17 05:50:27;;;;;;;0.55;0.55;;;20.70;51.30;;;;;;4900258;28;44807;-59
2022/10/17 05:52:53;;;;;;;0.50;0.50;;;20.80;51.30;;;;;;4901879;28;45392;-60
2022/10/17 05:55:18;;;;;;;0.60;0.60;;;20.80;51.30;;;;;;4896568;28;45338;-60
2022/10/17 05:57:44;;;;;;;0.47;0.47;;;20.80;51.30;;;;;;4865237;28;45026;-60
2022/10/17 06:00:10;;;;;;;0.32;0.32;;;20.70;51.30;;;;;;4895445;28;45327;-58
2022/10/17 06:02:36;;;;;;;0.95;0.60;;;20.80;51.30;;;;;;4904932;28;44923;-60
2022/10/17 06:05:01;;;;;;;0.50;0.50;;;20.80;51.30;;;;;;4885951;28;46689;-59
2022/10/17 06:07:27;;;;;;;0.60;0.60;;;20.90;51.30;;;;;;4910909;28;44978;-61
2022/10/17 06:09:52;;;;;;;0.50;0.50;;;20.90;51.30;;;;;;4899806;28;44967;-60
2022/10/17 06:12:18;;;;;;;0.63;0.55;;;20.80;51.30;;;;;;4907746;28;45282;-58
2022/10/17 06:14:43;;;;;;;0.55;0.47;;;20.90;51.20;;;;;;4882832;28;46618;-59
2022/10/17 06:17:09;;;;;;;0.60;0.50;;;20.90;51.20;;;;;;4889672;28;45058;-60
2022/10/17 06:19:35;;;;;;;0.80;0.52;;;20.90;51.20;;;;;;4888991;29;44753;-61
2022/10/17 06:22:01;;;;;;;0.63;0.43;;;21.00;51.30;;;;;;4878496;28;45004;-60
2022/10/17 06:24:26;;;;;;;1.95;0.73;;;20.90;51.20;;;;;;4899014;28;46141;-59
2022/10/17 06:26:52;;;;;;;0.65;0.50;;;20.90;51.20;;;;;;4884668;28;45207;-60
2022/10/17 06:29:18;;;;;;;0.45;0.45;;;20.90;51.20;;;;;;4898848;28;44720;-60
2022/10/17 06:31:43;;;;;;;0.70;0.70;;;20.90;51.20;;;;;;4889027;28;44940;-59
2022/10/17 06:34:09;;;;;;;1.20;0.82;;;21.00;51.30;;;;;;4910879;28;45100;-61
2022/10/17 06:36:34;;;;;;;0.57;0.57;;;21.00;51.20;;;;;;4900987;28;46054;-61
2022/10/17 06:39:00;;;;;;;0.50;0.50;;;21.00;51.20;;;;;;4888417;28;45081;-60
2022/10/17 06:41:25;;;;;;;0.60;0.60;;;21.10;51.20;;;;;;4902878;28;45182;-60
2022/10/17 06:43:51;;;;;;;0.85;0.50;;;21.10;51.10;;;;;;4886730;28;45480;-61
2022/10/17 06:46:17;;;;;;;0.65;0.50;;;21.10;51.00;;;;;;4885031;29;45212;-59
2022/10/17 06:48:43;;;;;;;0.30;0.30;;;21.10;51.00;;;;;;4889185;28;45556;-60
2022/10/17 06:51:10;;;;;;;0.40;0.32;;;21.20;51.00;;;;;;4887472;28;45005;-61
2022/10/17 06:53:35;;;;;;;0.55;0.55;;;21.20;51.00;;;;;;4888146;28;45104;-60
2022/10/17 06:56:02;;;;;;;1.00;0.55;;;21.20;50.90;;;;;;4888728;28;45046;-59
2022/10/17 06:58:29;;;;;;;2.88;0.50;;;21.20;50.90;;;;;;4874976;28;45275;-59
2022/10/17 07:01:03;;;;;;;0.93;0.50;;;21.30;50.90;;;;;;4903438;28;44981;-59
2022/10/17 07:03:28;;;;;;;0.43;0.40;;;21.30;50.90;;;;;;4901703;28;45125;-60
2022/10/17 07:05:54;;;;;;;0.88;0.63;;;21.30;50.80;;;;;;4899744;28;44996;-62
2022/10/17 07:08:20;;;;;;;1.13;0.85;;;21.40;50.80;;;;;;4875005;28;44981;-61
2022/10/17 07:10:46;;;;;;;1.42;0.63;;;21.40;50.80;;;;;;4887183;28;45180;-60
2022/10/17 07:13:11;;;;;;;0.50;0.50;;;21.40;50.80;;;;;;4906402;28;45728;-60
2022/10/17 07:15:37;;;;;;;0.63;0.50;;;21.40;50.80;;;;;;4885609;28;44924;-60
2022/10/17 07:18:03;;;;;;;0.70;0.50;;;21.40;50.80;;;;;;4888923;28;45155;-60
2022/10/17 07:20:29;;;;;;;2.38;0.60;;;21.40;50.70;;;;;;4885680;28;45047;-60
2022/10/17 07:22:54;;;;;;;1.02;0.70;;;21.40;50.70;;;;;;4902547;28;46127;-60
2022/10/17 07:25:20;;;;;;;3.45;0.70;;;21.50;50.80;;;;;;4870673;28;44964;-60
2022/10/17 07:27:47;;;;;;;0.57;0.50;;;21.50;50.70;;;;;;4901685;28;44920;-61
2022/10/17 07:30:12;;;;;;;0.60;0.60;;;21.40;50.70;;;;;;4890408;28;44718;-60
2022/10/17 07:32:38;;;;;;;0.85;0.40;;;21.50;50.70;;;;;;4907409;28;46007;-58
2022/10/17 07:35:04;;;;;;;1.35;0.50;;;21.50;50.70;;;;;;4902630;28;45045;-60
2022/10/17 07:37:29;;;;;;;0.45;0.38;;;21.50;50.70;;;;;;4907133;28;45245;-59
2022/10/17 07:39:55;;;;;;;1.42;0.60;;;21.50;50.70;;;;;;4912837;28;44859;-58
2022/10/17 07:42:21;;;;;;;1.13;0.50;;;21.60;50.70;;;;;;4908041;28;45357;-61
2022/10/17 07:44:46;;;;;;;1.42;0.50;;;21.60;50.60;;;;;;4914384;28;44702;-59
2022/10/17 07:47:12;;;;;;;0.95;0.65;;;21.60;50.60;;;;;;4891357;28;45282;-60
2022/10/17 07:49:42;;;;;;;1.10;0.50;;;21.60;50.60;;;;;;4906337;28;45071;-60
2022/10/17 07:52:12;;;;;;;2.42;0.43;;;21.60;50.60;;;;;;4908290;28;45550;-60
2022/10/17 07:54:37;;;;;;;1.20;0.50;;;21.60;50.50;;;;;;4900846;28;45136;-59
2022/10/17 07:57:03;;;;;;;3.20;0.50;;;21.70;50.50;;;;;;4890078;28;44762;-59
2022/10/17 07:59:28;;;;;;;0.82;0.50;;;21.70;50.50;;;;;;4895445;28;45052;-60
2022/10/17 08:01:55;;;;;;;2.88;0.55;;;21.70;50.50;;;;;;4882075;28;46222;-59
2022/10/17 08:04:20;;;;;;;3.42;0.50;;;21.70;50.50;;;;;;4888912;28;45042;-60
2022/10/17 08:06:46;;;;;;;3.22;0.68;;;21.70;50.40;;;;;;4902601;28;44969;-58
2022/10/17 08:09:11;;;;;;;0.90;0.50;;;21.70;50.40;;;;;;4889459;28;44917;-59
2022/10/17 08:11:37;;;;;;;3.05;0.50;;;21.80;50.40;;;;;;4905413;28;45332;-61
2022/10/17 08:14:03;;;;;;;1.23;0.57;;;21.80;50.30;;;;;;4888673;28;45056;-59
2022/10/17 08:16:28;;;;;;;0.82;0.60;;;21.80;50.30;;;;;;4895250;28;44776;-60
2022/10/17 08:18:54;;;;;;;2.55;0.50;;;21.90;50.30;;;;;;4905473;28;45025;-60
2022/10/17 08:21:19;;;;;;;1.35;0.47;;;21.90;50.30;;;;;;4888599;28;45218;-58
2022/10/17 08:23:45;;;;;;;1.83;0.50;;;21.90;50.30;;;;;;4912078;28;45159;-59
2022/10/17 08:26:12;;;;;;;0.70;0.57;;;21.90;50.30;;;;;;4908140;28;45358;-60
2022/10/17 08:28:38;;;;;;;1.05;0.60;;;21.90;50.40;;;;;;4889973;28;44677;-58
2022/10/17 08:31:09;;;;;;;2.80;0.60;;;21.90;50.30;;;;;;4872983;28;47297;-58
2022/10/17 08:33:35;;;;;;;0.55;0.38;;;22.00;50.30;;;;;;4877199;28;45132;-59
2022/10/17 08:36:01;;;;;;;0.93;0.68;;;22.00;50.30;;;;;;4905654;28;45010;-59
2022/10/17 08:38:28;;;;;;;1.52;0.50;;;22.00;50.20;;;;;;4907189;28;45214;-59
2022/10/17 08:40:56;;;;;;;1.48;0.50;;;22.00;50.30;;;;;;4893360;28;46110;-61
2022/10/17 08:43:33;;;;;;;0.70;0.60;;;22.00;50.30;;;;;;4873529;29;45009;-59
2022/10/17 08:46:03;;;;;;;2.25;0.60;;;22.00;50.20;;;;;;4872543;28;45151;-58
2022/10/17 08:48:32;;;;;;;4.78;0.60;;;22.00;50.20;;;;;;4890224;28;45239;-61
2022/10/17 08:51:13;;;;;;;0.70;0.52;;;22.00;50.20;;;;;;4894396;28;45105;-57
2022/10/17 08:53:57;;;;;;;3.53;0.70;;;22.00;50.20;;;;;;4888487;29;44728;-60
2022/10/17 08:56:36;;;;;;;0.65;0.43;;;22.10;50.20;;;;;;4878962;28;46356;-58
2022/10/17 08:59:04;;;;;;;0.95;0.50;;;22.10;50.20;;;;;;4875062;28;45038;-59
2022/10/17 09:01:37;;;;;;;1.90;0.70;;;22.10;50.20;;;;;;4888904;28;45258;-59
2022/10/17 09:04:15;;;;;;;1.65;0.52;;;22.10;50.20;;;;;;4905955;28;44779;-61
2022/10/17 09:07:17;;;;;;;2.03;0.50;;;22.20;50.20;;;;;;4905881;28;44948;-60
2022/10/17 09:10:20;;;;;;;0.88;0.70;;;22.20;50.10;;;;;;4908149;28;45740;-60
2022/10/17 09:12:51;;;;;;;3.53;0.70;;;22.20;50.10;;;;;;4860421;28;45584;-60
2022/10/17 09:15:28;;;;;;;6.70;0.70;;;22.20;50.20;;;;;;4905713;28;45423;-61
2022/10/17 09:17:55;;;;;;;0.40;0.40;;;22.20;50.10;;;;;;4887162;28;45221;-60
2022/10/17 09:20:25;;;;;;;1.02;0.60;;;22.20;50.10;;;;;;4873393;28;45012;-60
2022/10/17 09:23:05;;;;;;;2.38;0.50;;;22.20;50.10;;;;;;4886117;28;46385;-61
2022/10/17 09:25:51;;;;;;;1.10;0.60;;;22.20;50.10;;;;;;4896942;28;45146;-60
2022/10/17 09:28:31;;;;;;;1.30;0.60;;;22.30;50.10;;;;;;4886069;28;45368;-59
2022/10/17 09:31:02;;;;;;;3.28;0.60;;;22.30;50.10;;;;;;4861656;28;45528;-60
2022/10/17 09:33:42;;;;;;;2.20;0.50;;;22.30;50.10;;;;;;4869756;28;45669;-59
2022/10/17 09:36:19;;;;;;;3.45;0.65;;;22.40;50.60;;;;;;4878365;28;45341;-60
2022/10/17 09:38:51;;;;;;;4.70;0.73;;;22.30;50.00;;;;;;4873080;29;45503;-58
2022/10/17 09:41:26;;;;;;;3.15;0.60;;;22.40;50.10;;;;;;4869771;28;45707;-60
2022/10/17 09:43:55;;;;;;;1.70;0.60;;;22.40;50.10;;;;;;4866313;29;45766;-60
2022/10/17 09:46:33;;;;;;;1.70;0.63;;;22.40;50.00;;;;;;4873602;28;45626;-60
2022/10/17 09:49:11;;;;;;;2.58;0.70;;;22.40;50.10;;;;;;4854375;29;45571;-61
2022/10/17 09:51:37;;;;;;;2.67;0.70;;;22.40;50.00;;;;;;4856694;29;45067;-60
2022/10/17 09:54:04;;;;;;;3.90;0.77;;;22.40;50.00;;;;;;4859855;28;45270;-61
2022/10/17 09:56:29;;;;;;;1.83;0.68;;;22.40;50.00;;;;;;4872954;29;45338;-60
2022/10/17 09:58:56;;;;;;;0.95;0.45;;;22.40;50.10;;;;;;4890545;28;45498;-60
2022/10/17 10:01:29;;;;;;;2.42;0.60;;;22.50;50.10;;;;;;4860789;28;45316;-60
2022/10/17 10:04:11;;;;;;;1.13;0.70;;;22.50;50.10;;;;;;4854213;28;45938;-61
2022/10/17 10:06:37;;;;;;;2.58;0.50;;;22.50;50.10;;;;;;4869349;29;45108;-60
2022/10/17 10:09:04;;;;;;;1.17;0.50;;;22.50;50.10;;;;;;4883607;28;45554;-60
2022/10/17 10:11:53;;;;;;;1.08;0.47;;;22.50;50.10;;;;;;4876788;29;45467;-61
2022/10/17 10:14:39;;;;;;;1.48;0.60;;;22.50;50.10;;;;;;4892046;28;46346;-61
2022/10/17 10:17:23;;;;;;;2.95;0.73;;;22.50;50.10;;;;;;4896091;28;45337;-60
2022/10/17 10:19:49;;;;;;;1.27;0.90;;;22.50;50.10;;;;;;4864960;29;45178;-60
2022/10/17 10:22:16;;;;;;;2.78;0.70;;;22.50;50.10;;;;;;4882150;28;45294;-60
2022/10/17 10:24:41;;;;;;;3.22;0.93;;;22.50;50.10;;;;;;4893281;28;45830;-59
2022/10/17 10:27:12;;;;;;;3.80;0.50;;;22.50;50.10;;;;;;4888799;28;45544;-60
2022/10/17 10:29:40;;;;;;;3.05;0.75;;;22.50;50.10;;;;;;4860641;29;45742;-60
2022/10/17 10:32:28;;;;;;;1.48;0.47;;;22.50;50.10;;;;;;4880905;28;45313;-60
2022/10/17 10:34:57;;;;;;;3.42;0.63;;;22.50;50.10;;;;;;4881909;28;45272;-60
2022/10/17 10:37:25;;;;;;;0.52;0.52;;;22.50;50.10;;;;;;4863497;29;46131;-60
2022/10/17 10:39:55;;;;;;;0.63;0.50;;;22.50;50.20;;;;;;4864285;29;45351;-61
2022/10/17 10:42:27;;;;;;;3.08;0.70;;;22.50;50.20;;;;;;4890378;28;44808;-61
2022/10/17 10:44:54;;;;;;;6.25;0.68;;;22.50;50.20;;;;;;4860538;29;46626;-60
2022/10/17 10:47:25;;;;;;;1.88;0.60;;;22.50;50.20;;;;;;4880383;28;44692;-61
2022/10/17 10:49:53;;;;;;;1.60;1.02;;;22.50;50.20;;;;;;4873025;29;45296;-61
2022/10/17 10:52:31;;;;;;;1.98;0.60;;;22.50;50.20;;;;;;4874920;29;45778;-61
2022/10/17 10:55:15;;;;;;;1.25;0.60;;;22.50;50.20;;;;;;4860749;28;45587;-59
2022/10/17 10:57:40;;;;;;;2.60;0.50;;;22.50;50.20;;;;;;4882782;29;44743;-62
2022/10/17 11:00:14;;;;;;;1.05;0.60;;;22.50;50.30;;;;;;4885997;28;45343;-63
2022/10/17 11:02:52;;;;;;;3.30;0.70;;;22.50;50.30;;;;;;4868739;29;45440;-63
2022/10/17 11:05:32;;;;;;;1.45;0.65;;;22.60;50.30;;;;;;4882994;29;45233;-63
2022/10/17 11:08:19;;;;;;;1.13;0.70;;;22.60;50.40;;;;;;4877103;29;45380;-63
2022/10/17 11:11:12;;;;;;;1.20;0.93;;;22.60;50.80;;;;;;4884455;28;46077;-63
2022/10/17 11:13:45;;;;;;;2.03;1.20;;;22.60;51.60;;;;;;4898084;29;45943;-62
2022/10/17 11:16:22;;;;;;;5.05;1.20;;;22.70;52.00;;;;;;4866812;28;45421;-62
2022/10/17 11:19:02;;;;;;;2.17;0.90;;;22.70;52.40;;;;;;4880176;29;44722;-62
2022/10/17 11:21:42;;;;;;;1.30;1.10;;;22.70;52.30;;;;;;4881897;29;45268;-63
2022/10/17 11:24:45;;;;;;;2.20;1.20;;;22.70;52.90;;;;;;4893879;28;45208;-62
2022/10/17 11:27:11;;;;;;;2.08;1.20;;;22.80;53.90;;;;;;4790609;29;45646;-62
2022/10/17 11:29:37;;;;;;;;;;;22.80;53.00;;;;;;4859395;28;45400;-63
2022/10/17 11:32:21;;;;;;;;;;;22.90;54.50;;;;;;4893931;28;45503;-64
2022/10/17 11:34:48;;;;;;;;;;;22.90;54.50;;;;;;4898033;28;45438;-63
2022/10/17 11:37:16;;;;;;;;;;;22.90;55.00;;;;;;4883939;29;45758;-62
2022/10/17 11:39:48;;;;;;;;;;;22.90;54.80;;;;;;4880518;29;45475;-63
2022/10/17 11:42:27;;;;;;;;;;;22.90;55.20;;;;;;4887229;28;45234;-63
2022/10/17 11:44:56;;;;;;;;;;;22.90;55.00;;;;;;4881689;29;45184;-63
2022/10/17 11:47:21;;;;;;;;;;;22.90;55.00;;;;;;4903272;28;45272;-63
2022/10/17 11:49:50;;;;;;;;;;;23.00;54.90;;;;;;4900901;28;44724;-63
2022/10/17 11:52:19;;;;;;;;;;;23.00;55.20;;;;;;4884264;28;45541;-64
2022/10/17 11:54:47;;;;;;;;;;;23.00;55.30;;;;;;4898947;28;45482;-63
2022/10/17 11:57:19;;;;;;;;;;;23.00;55.30;;;;;;4881467;28;46241;-63
2022/10/17 11:59:47;;;;;;;;;;;23.00;55.50;;;;;;4903484;28;45198;-63
2022/10/17 12:02:33;;;;;;;;;;;23.00;55.50;;;;;;4882949;28;45671;-63
2022/10/17 12:05:01;;;;;;;;;;;23.10;55.60;;;;;;4867794;29;45208;-63
2022/10/17 12:07:32;;;;;;;;;;;23.10;55.90;;;;;;4899678;28;46140;-64
2022/10/17 12:10:06;;;;;;;;;;;23.10;55.80;;;;;;4877451;28;45304;-63
2022/10/17 12:12:33;;;;;;;;;;;23.10;55.90;;;;;;4875325;29;48137;-63
2022/10/17 12:15:25;;;;;;;;;;;23.10;55.90;;;;;;4887289;28;45160;-62
2022/10/17 12:17:54;;;;;;;;;;;23.10;56.00;;;;;;4864676;28;46021;-62
2022/10/17 12:20:20;;;;;;;;;;;23.20;56.20;;;;;;4901397;28;44756;-62
2022/10/17 12:22:45;;;;;;;;;;;23.20;56.20;;;;;;4898301;28;45492;-62
2022/10/17 12:25:15;;;;;;;;;;;23.20;56.00;;;;;;4877656;28;45294;-62
2022/10/17 12:27:42;;;;;;;;;;;23.30;56.40;;;;;;4894973;29;45492;-62
2022/10/17 12:30:11;;;;;;;;;;;23.30;56.20;;;;;;4879191;29;44935;-62
2022/10/17 12:32:36;;;;;;;;;;;23.30;56.40;;;;;;4894939;28;45071;-62
2022/10/17 12:35:02;;;;;;;;;;;23.30;56.90;;;;;;4872714;29;45568;-63
2022/10/17 12:37:47;;;;;;;;;;;23.30;56.90;;;;;;4896550;28;46048;-63
2022/10/17 12:40:31;;;;;;;;;;;23.30;56.70;;;;;;4894934;28;45218;-63
2022/10/17 12:42:56;;;;;;;;;;;23.40;56.90;;;;;;4895692;28;45561;-63
2022/10/17 12:45:40;;;;;;;;;;;23.40;57.10;;;;;;4897719;28;45554;-63
2022/10/17 12:48:08;;;;;;;;;;;23.50;56.90;;;;;;4879836;28;48165;-63
2022/10/17 12:50:53;;;;;;;;;;;23.50;57.20;;;;;;4904506;28;45387;-63
2022/10/17 12:53:19;;;;;;;;;;;23.50;57.30;;;;;;4897400;28;45253;-64
2022/10/17 12:55:44;;;;;;;;;;;23.50;56.90;;;;;;4879277;29;44969;-63
2022/10/17 12:58:13;;;;;;;;;;;23.50;57.20;;;;;;4860510;28;46673;-63
2022/10/17 13:00:45;;;;;;;;;;;23.60;57.00;;;;;;4885601;28;45147;-63
2022/10/17 13:03:10;;;;;;;;;;;23.60;57.00;;;;;;4881536;28;45575;-63
2022/10/17 13:05:37;;;;;;;;;;;23.60;56.90;;;;;;4881806;28;45452;-63
2022/10/17 13:08:03;;;;;;;;;;;23.60;56.80;;;;;;4895725;28;45501;-62
2022/10/17 13:10:29;;;;;;;;;;;23.70;56.90;;;;;;4903562;28;45240;-63
2022/10/17 13:13:15;;;;;;;;;;;23.60;56.90;;;;;;4877966;29;45424;-63
2022/10/17 13:15:44;;;;;;;;;;;23.70;56.80;;;;;;4854637;28;45256;-62
2022/10/17 13:18:12;;;;;;;;;;;23.70;56.90;;;;;;4892673;28;46899;-65
2022/10/17 13:20:38;;;;;;;;;;;23.80;56.70;;;;;;4870425;29;45273;-63
2022/10/17 13:23:03;;;;;;;;;;;23.70;56.80;;;;;;4891107;28;45316;-63
2022/10/17 13:25:29;;;;;;;;;;;23.80;56.70;;;;;;4896131;29;45076;-63
2022/10/17 13:28:05;;;;;;;;;;;23.80;56.60;;;;;;4873791;29;46678;-63
2022/10/17 13:30:34;;;;;;;;;;;23.80;56.60;;;;;;4892287;28;45233;-63
2022/10/17 13:33:00;;;;;;;;;;;23.80;56.50;;;;;;4869947;29;45464;-63
2022/10/17 13:35:30;;;;;;;;;;;23.80;57.10;;;;;;4890039;28;45238;-62
2022/10/17 13:37:55;;;;;;;;;;;23.80;56.60;;;;;;4872464;29;45433;-63
2022/10/17 13:40:22;;;;;;;;;;;23.80;56.60;;;;;;4878285;29;45160;-63
2022/10/17 13:42:48;;;;;;;;;;;23.80;56.50;;;;;;4882791;29;45196;-63
2022/10/17 13:45:18;;;;;;;;;;;23.80;56.40;;;;;;4893907;28;44917;-63
2022/10/17 13:47:43;;;;;;;;;;;23.80;56.60;;;;;;4874371;29;45715;-63
2022/10/17 13:50:15;;;;;;;;;;;23.80;56.50;;;;;;4876363;28;45644;-63
2022/10/17 13:52:41;;;;;;;;;;;23.80;56.50;;;;;;4876871;29;45887;-63
2022/10/17 13:55:14;;;;;;;;;;;23.80;56.50;;;;;;4885965;28;45622;-63
2022/10/17 13:57:40;;;;;;;;;;;23.80;56.30;;;;;;4876744;29;46152;-63
2022/10/17 14:00:06;;;;;;;;;;;23.80;56.30;;;;;;4893562;28;45392;-63
2022/10/17 14:02:32;;;;;;;;;;;23.80;56.40;;;;;;4897479;28;45421;-63
2022/10/17 14:04:59;;;;;;;;;;;23.80;56.00;;;;;;4883427;29;45272;-63
2022/10/17 14:07:25;;;;;;;;;;;23.80;56.00;;;;;;4881707;29;46243;-63
2022/10/17 14:09:50;;;;;;;;;;;23.80;56.00;;;;;;4878175;28;46788;-63
2022/10/17 14:12:16;;;;;;;;;;;23.80;55.90;;;;;;4899649;28;44794;-63
2022/10/17 14:14:45;;;;;;;;;;;23.80;55.80;;;;;;4880681;29;45512;-64
2022/10/17 14:17:14;;;;;;;;;;;23.80;55.90;;;;;;4872384;29;45479;-63
2022/10/17 14:19:39;;;;;;;;;;;23.80;55.90;;;;;;4877769;29;45538;-64
2022/10/17 14:22:14;;;;;;;;;;;23.80;55.90;;;;;;4878452;28;45861;-63
2022/10/17 14:24:41;;;;;;;;;;;23.80;55.90;;;;;;4890478;28;45157;-63
2022/10/17 14:27:25;;;;;;;;;;;23.80;55.90;;;;;;4897162;28;45104;-63
2022/10/17 14:29:51;;;;;;;;;;;23.80;55.90;;;;;;4875171;29;44732;-64
2022/10/17 14:32:17;;;;;;;;;;;23.80;55.90;;;;;;4882745;28;44960;-63
2022/10/17 14:34:42;;;;;;;;;;;23.80;55.90;;;;;;4896178;28;45563;-64
2022/10/17 14:37:09;;;;;;;;;;;23.80;55.90;;;;;;4883116;28;46933;-63
2022/10/17 14:39:34;;;;;;;;;;;23.80;56.00;;;;;;4895398;28;45337;-64
2022/10/17 14:42:00;;;;;;;;;;;23.80;56.00;;;;;;4898927;28;45465;-63
2022/10/17 14:44:29;;;;;;;;;;;23.80;56.00;;;;;;4882997;29;45345;-62
2022/10/17 14:46:58;;;;;;;;;;;23.80;56.10;;;;;;4894883;28;45626;-63
2022/10/17 14:49:25;;;;;;;;;;;23.80;56.20;;;;;;4881259;28;45363;-63
2022/10/17 14:52:10;;;;;;;;;;;23.80;56.30;;;;;;4880309;29;45328;-63
2022/10/17 14:54:36;;;;;;;;;;;23.80;56.40;;;;;;4902836;28;44977;-63
2022/10/17 14:57:07;;;;;;;;;;;23.80;56.50;;;;;;4893543;28;45535;-63
2022/10/17 14:59:32;;;;;;;;;;;23.80;56.40;;;;;;4878858;28;45173;-63
2022/10/17 15:01:58;;;;;;;;;;;23.80;56.50;;;;;;4853397;29;46527;-63
2022/10/17 15:04:23;;;;;;;;;;;23.80;56.30;;;;;;4886931;28;45668;-64
2022/10/17 15:06:52;;;;;;;;;;;23.80;56.30;;;;;;4895123;28;45529;-63
2022/10/17 15:09:18;;;;;;;;;;;23.80;56.60;;;;;;4894476;28;45172;-64
2022/10/17 15:11:43;;;;;;;;;;;23.80;57.00;;;;;;4894954;28;45386;-63
2022/10/17 15:14:09;;;;;;;;;;;23.80;57.00;;;;;;4904676;28;45839;-63
2022/10/17 15:16:34;;;;;;;;;;;23.80;57.00;;;;;;4904078;28;46895;-63
2022/10/17 15:19:00;;;;;;;;;;;23.80;56.90;;;;;;4894671;28;45145;-63
2022/10/17 15:21:26;;;;;;;;;;;23.80;57.10;;;;;;4881946;28;45681;-63
2022/10/17 15:23:51;;;;;;;;;;;23.90;57.20;;;;;;4895895;28;45430;-64
2022/10/17 15:26:18;;;;;;;;;;;23.80;57.20;;;;;;4876738;28;46297;-64
2022/10/17 15:28:43;;;;;;;;;;;23.80;57.20;;;;;;4877040;29;45372;-64
2022/10/17 15:31:10;;;;;;;;;;;23.80;57.40;;;;;;4886103;28;45180;-65
2022/10/17 15:33:35;;;;;;;;;;;23.80;57.50;;;;;;4878329;28;46074;-64
2022/10/17 15:36:01;;;;;;;;;;;23.70;57.40;;;;;;4859086;29;46659;-62
2022/10/17 15:38:26;;;;;;;;;;;23.70;57.30;;;;;;4876416;29;45483;-64
2022/10/17 15:40:52;;;;;;;;;;;23.70;57.30;;;;;;4876635;29;45526;-62
2022/10/17 15:43:17;;;;;;;;;;;23.70;57.20;;;;;;4894669;29;46046;-64
2022/10/17 15:45:43;;;;;;;;;;;23.70;57.10;;;;;;4890042;28;45516;-65
2022/10/17 15:48:09;;;;;;;;;;;23.70;57.10;;;;;;4891354;28;45227;-63
2022/10/17 15:50:35;;;;;;;;;;;23.70;57.10;;;;;;4875512;29;45556;-64
2022/10/17 15:53:00;;;;;;;;;;;23.60;57.10;;;;;;4891994;28;45514;-64
2022/10/17 15:55:26;;;;;;;;;;;23.60;57.00;;;;;;4876622;29;46713;-64
2022/10/17 15:57:51;;;;;;;;;;;23.60;57.00;;;;;;4872093;29;45515;-63
2022/10/17 16:00:17;;;;;;;;;;;23.60;57.00;;;;;;4893401;28;45349;-63
2022/10/17 16:02:43;;;;;;;;;;;23.60;57.00;;;;;;4874015;29;45263;-64
2022/10/17 16:05:13;;;;;;;;;;;23.60;56.90;;;;;;4875272;28;45907;-64
2022/10/17 16:07:38;;;;;;;;;;;23.50;56.90;;;;;;4896698;28;45347;-64
2022/10/17 16:10:04;;;;;;;;;;;23.50;56.90;;;;;;4874663;28;45756;-64
2022/10/17 16:12:32;;;;;;;;;;;23.50;56.80;;;;;;4893760;28;45531;-64
2022/10/17 16:14:58;;;;;;;;;;;23.50;56.80;;;;;;4890744;29;45260;-64
2022/10/17 16:17:23;;;;;;;;;;;23.50;56.80;;;;;;4892903;28;45124;-64
2022/10/17 16:19:49;;;;;;;;;;;23.50;56.80;;;;;;4870571;28;45272;-63
2022/10/17 16:22:16;;;;;;;;;;;23.50;56.80;;;;;;4867519;28;45008;-64
2022/10/17 16:24:41;;;;;;;;;;;23.50;56.80;;;;;;4851279;28;46384;-64
2022/10/17 16:27:07;;;;;;;;;;;23.50;56.70;;;;;;4888898;28;45018;-64